createdAt,value
2019-05-02T00:02:59.851Z,35.03
2019-05-02T00:08:02.146Z,34.70
2019-05-02T00:13:04.652Z,34.40
2019-05-02T00:18:06.916Z,34.67
2019-05-02T00:23:09.092Z,35.40
2019-05-02T00:28:12.306Z,35.03
2019-05-02T00:33:15.289Z,35.77
2019-05-02T00:38:17.407Z,34.60
2019-05-02T00:43:19.504Z,35.57
2019-05-02T00:48:30.109Z,35.83
2019-05-02T00:53:34.167Z,35.60
2019-05-02T00:58:36.339Z,34.03
2019-05-02T01:03:40.372Z,35.73
2019-05-02T01:08:42.613Z,35.83
2019-05-02T01:13:44.695Z,35.03
2019-05-02T01:18:46.841Z,34.80
2019-05-02T01:23:49.220Z,33.50
2019-05-02T01:29:01.360Z,33.77
2019-05-02T01:34:18.086Z,34.50
2019-05-02T01:39:19.081Z,33.67
2019-05-02T01:44:21.050Z,34.33
2019-05-02T01:49:23.171Z,34.10
2019-05-02T01:54:25.512Z,35.93
2019-05-02T01:59:29.083Z,35.57
2019-05-02T02:04:31.481Z,36.83
2019-05-02T02:09:33.674Z,37.53
2019-05-02T02:14:38.863Z,36.90
2019-05-02T02:19:46.503Z,36.17
2019-05-02T02:25:08.334Z,36.50
2019-05-02T02:30:10.568Z,35.80
2019-05-02T02:35:13.014Z,37.77
2019-05-02T02:40:16.745Z,37.47
2019-05-02T02:45:37.978Z,36.90
2019-05-02T02:50:43.053Z,36.70
2019-05-02T02:55:44.076Z,37.50
2019-05-02T03:00:47.547Z,35.87
2019-05-02T03:05:50.446Z,37.00
2019-05-02T03:10:53.156Z,36.57
2019-05-02T03:16:00.327Z,37.73
2019-05-02T03:21:00.253Z,36.77
2019-05-02T03:26:07.842Z,38.87
2019-05-02T03:31:22.039Z,37.67
2019-05-02T03:36:25.905Z,34.70
2019-05-02T03:41:20.715Z,36.37
2019-05-02T03:46:20.777Z,35.90
2019-05-02T03:51:25.240Z,35.40
2019-05-02T03:56:27.191Z,34.33
2019-05-02T04:01:34.804Z,36.53
2019-05-02T04:06:33.628Z,35.70
2019-05-02T04:11:39.210Z,34.70
2019-05-02T04:16:40.119Z,33.67
2019-05-02T04:21:43.010Z,33.80
2019-05-02T04:26:54.021Z,33.83
2019-05-02T04:31:49.230Z,33.37
2019-05-02T04:36:59.408Z,34.17
2019-05-02T04:41:58.400Z,33.40
2019-05-02T04:47:09.922Z,33.97
2019-05-02T04:52:07.875Z,33.70
2019-05-02T04:57:08.491Z,33.80
2019-05-02T05:02:10.933Z,35.07
2019-05-02T05:07:13.064Z,35.00
2019-05-02T05:12:15.243Z,34.77
2019-05-02T05:17:19.701Z,35.40
2019-05-02T05:22:21.240Z,36.73
2019-05-02T05:27:23.981Z,37.37
2019-05-02T05:32:37.582Z,38.40
2019-05-02T05:37:43.174Z,39.10
2019-05-02T05:42:43.853Z,39.53
2019-05-02T05:47:47.792Z,39.53
2019-05-02T05:52:51.840Z,39.90
2019-05-02T05:58:01.760Z,40.13
2019-05-02T06:03:10.318Z,39.30
2019-05-02T06:08:04.723Z,40.40
2019-05-02T06:13:10.827Z,40.57
2019-05-02T06:18:14.777Z,39.03
2019-05-02T06:23:16.886Z,39.53
2019-05-02T06:28:20.173Z,39.07
2019-05-02T06:33:25.879Z,38.10
2019-05-02T06:38:26.336Z,39.60
2019-05-02T06:43:28.393Z,41.77
2019-05-02T06:48:30.634Z,40.23
2019-05-02T06:53:35.065Z,38.60
2019-05-02T06:58:37.065Z,39.60
2019-05-02T07:03:41.251Z,37.70
2019-05-02T07:08:44.893Z,37.50
2019-05-02T07:13:46.886Z,40.37
2019-05-02T07:18:52.135Z,39.07
2019-05-02T07:23:55.371Z,38.83
2019-05-02T07:28:57.503Z,40.33
2019-05-02T07:33:59.622Z,38.30
2019-05-02T07:39:05.186Z,37.73
2019-05-02T07:44:06.136Z,39.80
2019-05-02T07:49:09.265Z,37.90
2019-05-02T07:54:12.379Z,37.43
2019-05-02T07:59:14.473Z,36.33
2019-05-02T08:04:16.636Z,36.33
2019-05-02T08:09:19.006Z,35.73
2019-05-02T08:14:20.981Z,34.83
2019-05-02T08:19:23.596Z,34.23
2019-05-02T08:24:27.095Z,35.13
2019-05-02T08:29:30.805Z,33.80
2019-05-02T08:34:33.168Z,36.50
2019-05-02T08:39:35.422Z,37.20
2019-05-02T08:44:50.387Z,36.60
2019-05-02T08:49:42.901Z,36.37
2019-05-02T08:54:45.019Z,36.37
2019-05-02T08:59:48.523Z,36.80
2019-05-02T09:04:58.296Z,37.33
2019-05-02T09:09:55.564Z,35.67
2019-05-02T09:14:58.900Z,36.67
2019-05-02T09:20:05.448Z,36.53
2019-05-02T09:25:05.913Z,36.77
2019-05-02T09:30:08.825Z,36.87
2019-05-02T09:35:11.759Z,37.77
2019-05-02T09:40:16.777Z,35.73
2019-05-02T09:45:27.890Z,36.33
2019-05-02T09:50:31.385Z,36.37
2019-05-02T09:55:31.876Z,35.77
2019-05-02T10:01:01.862Z,35.90
2019-05-02T10:06:08.362Z,34.27
2019-05-02T10:11:11.643Z,34.70
2019-05-02T10:16:18.016Z,34.43
2019-05-02T10:21:17.641Z,35.43
2019-05-02T10:26:24.169Z,37.40
2019-05-02T10:31:27.472Z,36.27
2019-05-02T10:36:27.976Z,37.47
2019-05-02T10:41:31.740Z,34.07
2019-05-02T10:46:42.033Z,35.90
2019-05-02T10:51:49.703Z,33.17
2019-05-02T10:56:48.256Z,32.70
2019-05-02T11:02:18.534Z,32.33
2019-05-02T11:07:22.730Z,33.10
2019-05-02T11:12:56.429Z,32.53
2019-05-02T11:17:58.706Z,33.53
2019-05-02T11:23:02.205Z,31.33
2019-05-02T11:28:07.110Z,32.60
2019-05-02T11:33:08.721Z,31.03
2019-05-02T11:38:13.265Z,28.57
2019-05-02T11:43:14.846Z,29.47
2019-05-02T11:48:19.741Z,31.77
2019-05-02T11:53:25.354Z,30.37
2019-05-02T11:58:25.125Z,28.43
2019-05-02T12:03:38.598Z,30.17
2019-05-02T12:08:45.157Z,28.30
2019-05-02T12:13:47.413Z,27.00
2019-05-02T12:18:49.133Z,28.03
2019-05-02T12:23:52.641Z,28.27
2019-05-02T12:28:55.098Z,22.93
2019-05-02T12:33:59.024Z,21.83
2019-05-02T12:39:02.409Z,24.17
2019-05-02T12:44:05.863Z,23.27
2019-05-02T12:49:08.027Z,22.93
2019-05-02T12:54:12.222Z,23.63
2019-05-02T12:59:15.659Z,24.63
2019-05-02T13:04:17.767Z,23.57
2019-05-02T13:09:20.333Z,23.87
2019-05-02T13:14:25.512Z,22.60
2019-05-02T13:19:38.014Z,23.00
2019-05-02T13:24:38.105Z,21.23
2019-05-02T13:29:52.320Z,21.67
2019-05-02T13:35:34.233Z,17.97
2019-05-02T13:40:43.386Z,13.80
2019-05-02T13:51:28.918Z,12.03
2019-05-02T13:56:52.844Z,11.03
2019-05-02T14:01:55.063Z,11.50
2019-05-02T14:06:57.252Z,10.13
2019-05-02T14:12:17.826Z,10.50
2019-05-02T14:17:20.131Z,10.83
2019-05-02T14:22:22.687Z,10.80
2019-05-02T14:27:25.012Z,9.33
2019-05-02T14:32:27.065Z,9.33
2019-05-02T14:37:29.160Z,8.93
2019-05-02T14:42:32.225Z,10.43
2019-05-02T14:47:34.569Z,10.67
2019-05-02T14:52:37.211Z,9.20
2019-05-02T14:57:42.746Z,10.10
2019-05-02T15:02:49.070Z,8.57
2019-05-02T15:07:48.536Z,8.47
2019-05-02T15:12:51.675Z,9.90
2019-05-02T15:17:54.727Z,10.87
2019-05-02T15:22:56.718Z,10.03
2019-05-02T15:28:02.020Z,10.80
2019-05-02T15:33:12.396Z,10.70
2019-05-02T15:38:24.072Z,9.77
2019-05-02T15:43:18.710Z,10.73
2019-05-02T15:48:26.071Z,9.90
2019-05-02T15:53:32.455Z,8.83
2019-05-02T15:58:34.858Z,8.93
2019-05-02T16:03:46.255Z,7.97
2019-05-02T16:08:48.843Z,8.33
2019-05-02T16:13:55.677Z,9.37
2019-05-02T16:18:56.840Z,9.37
2019-05-02T16:24:17.323Z,9.63
2019-05-02T16:29:26.627Z,10.27
2019-05-02T16:34:27.399Z,10.77
2019-05-02T16:39:27.948Z,9.20
2019-05-02T16:44:30.018Z,8.77
2019-05-02T16:49:32.291Z,8.73
2019-05-02T16:54:41.528Z,8.67
2019-05-02T16:59:38.607Z,9.93
2019-05-02T17:04:42.740Z,9.33
2019-05-02T17:10:19.480Z,12.03
2019-05-02T17:15:35.740Z,12.37
2019-05-02T17:20:39.048Z,11.80
2019-05-02T17:25:41.599Z,11.33
2019-05-02T17:30:43.991Z,11.10
2019-05-02T17:35:49.915Z,11.07
2019-05-02T17:40:53.709Z,11.20
2019-05-02T17:45:56.403Z,11.83
2019-05-02T17:51:13.680Z,14.40
2019-05-02T17:56:20.432Z,15.67
2019-05-02T18:01:31.817Z,16.70
2019-05-02T18:06:35.521Z,17.80
2019-05-02T18:11:37.904Z,19.80
2019-05-02T18:16:41.868Z,19.63
2019-05-02T18:21:44.221Z,20.20
2019-05-02T18:26:46.383Z,19.07
2019-05-02T18:31:48.608Z,18.90
2019-05-02T18:36:52.402Z,19.33
2019-05-02T18:41:55.144Z,17.60
2019-05-02T18:46:57.970Z,16.67
2019-05-02T18:52:01.789Z,16.70
2019-05-02T18:57:05.257Z,16.67
2019-05-02T19:02:07.548Z,15.50
2019-05-02T19:07:14.306Z,17.07
2019-05-02T19:12:22.559Z,16.50
2019-05-02T19:17:21.929Z,15.37
2019-05-02T19:22:32.084Z,15.97
2019-05-02T19:27:57.897Z,19.50
2019-05-02T19:33:03.621Z,27.23
2019-05-02T19:38:04.960Z,29.33
2019-05-02T19:43:14.725Z,31.80
2019-05-02T19:48:18.971Z,32.60
2019-05-02T19:53:22.916Z,35.13
2019-05-02T19:58:25.315Z,35.53
2019-05-02T20:03:27.632Z,37.27
2019-05-02T20:08:32.545Z,35.53
2019-05-02T20:13:35.078Z,35.17
2019-05-02T20:18:42.536Z,32.90
2019-05-02T20:23:43.231Z,34.17
2019-05-02T20:28:45.210Z,33.40
2019-05-02T20:33:47.457Z,33.53
2019-05-02T20:38:50.040Z,31.57
2019-05-02T20:43:52.025Z,30.97
2019-05-02T20:48:54.215Z,27.17
2019-05-02T20:53:56.286Z,25.80
2019-05-02T20:58:58.466Z,24.20
2019-05-02T21:04:02.578Z,23.07
2019-05-02T21:09:14.613Z,24.83
2019-05-02T21:14:16.812Z,26.13
2019-05-02T21:19:18.871Z,23.97
2019-05-02T21:24:22.202Z,23.00
2019-05-02T21:29:24.293Z,21.77
2019-05-02T21:34:26.328Z,18.93
2019-05-02T21:39:28.362Z,17.70
2019-05-02T21:44:31.560Z,16.93
2019-05-02T21:49:49.749Z,17.30
2019-05-02T21:54:59.181Z,17.03
2019-05-02T22:00:02.458Z,16.57
2019-05-02T22:05:05.544Z,16.70
2019-05-02T22:10:08.127Z,16.43
2019-05-02T22:15:12.767Z,17.20
2019-05-02T22:20:15.071Z,15.13
2019-05-02T22:25:17.033Z,15.27
2019-05-02T22:30:19.128Z,14.33
2019-05-02T22:35:21.724Z,15.20
2019-05-02T22:40:25.018Z,13.73
2019-05-02T22:45:27.191Z,14.63
2019-05-02T22:50:32.448Z,13.47
2019-05-02T22:55:34.287Z,14.33
2019-05-02T23:00:36.378Z,15.27
2019-05-02T23:05:38.400Z,15.40
2019-05-02T23:10:41.637Z,15.97
2019-05-02T23:15:43.835Z,14.67
2019-05-02T23:20:45.943Z,14.77
2019-05-02T23:25:59.078Z,14.70
2019-05-02T23:31:02.660Z,12.53
2019-05-02T23:36:04.944Z,12.00
2019-05-02T23:41:07.019Z,11.03
2019-05-02T23:46:08.991Z,12.27
2019-05-02T23:51:12.099Z,11.90
2019-05-02T23:56:23.913Z,12.60
